Terminal Aerodrome Forecast
Issued by NWS Quad Cities IA IL

Home | Current Version | Previous Version | Text Only | Print | Product List | Glossary On
Versions: 1 2 3 4 5 6 7 8 9 10 11 12 13 14 15 16 17 18 19 20 21 22 23 24 25 26 27 28 29 30 31 32 33 34 35 36 37
702
FTUS43 KDVN 281730
TAFMLI
TAF
KMLI 281730Z 2818/2918 11006KT 4SM BR VCSH OVC015
      TEMPO 2818/2821 3SM -SHRA BR BKN008 OVC010
     FM290200 06004KT 5SM BR OVC012
     FM290600 04003KT 3SM BR OVC007
     FM291000 36004KT 2SM BR OVC004
     FM291500 03008KT P6SM BKN025=

USA.gov is the U.S. government's official web portal to all federal, state and local government web resources and services.